sensor_id;sensor_type;location;lat;lon;timestamp;P1;durP1;ratioP1;P2;durP2;ratioP2
43809;SDS011;29440;48.208;11.162;2022-11-15T00:01:14;9.18;;;5.03;;
43809;SDS011;29440;48.208;11.162;2022-11-15T00:03:42;8.45;;;5.00;;
43809;SDS011;29440;48.208;11.162;2022-11-15T00:06:08;8.00;;;4.60;;
43809;SDS011;29440;48.208;11.162;2022-11-15T00:08:33;7.30;;;4.15;;
43809;SDS011;29440;48.208;11.162;2022-11-15T00:11:00;7.18;;;3.92;;
43809;SDS011;29440;48.208;11.162;2022-11-15T00:13:27;5.32;;;3.90;;
43809;SDS011;29440;48.208;11.162;2022-11-15T00:15:56;6.72;;;3.78;;
43809;SDS011;29440;48.208;11.162;2022-11-15T00:18:23;7.05;;;4.00;;
43809;SDS011;29440;48.208;11.162;2022-11-15T00:20:48;7.10;;;4.07;;
43809;SDS011;29440;48.208;11.162;2022-11-15T00:23:14;6.35;;;3.83;;
43809;SDS011;29440;48.208;11.162;2022-11-15T00:25:40;7.22;;;4.03;;
43809;SDS011;29440;48.208;11.162;2022-11-15T00:28:06;5.13;;;3.63;;
43809;SDS011;29440;48.208;11.162;2022-11-15T00:30:31;5.93;;;3.70;;
43809;SDS011;29440;48.208;11.162;2022-11-15T00:33:01;7.85;;;3.90;;
43809;SDS011;29440;48.208;11.162;2022-11-15T00:35:33;7.40;;;3.88;;
43809;SDS011;29440;48.208;11.162;2022-11-15T00:38:00;7.65;;;4.85;;
43809;SDS011;29440;48.208;11.162;2022-11-15T00:40:26;6.88;;;3.90;;
43809;SDS011;29440;48.208;11.162;2022-11-15T00:42:52;7.47;;;4.10;;
43809;SDS011;29440;48.208;11.162;2022-11-15T00:45:18;5.18;;;3.70;;
43809;SDS011;29440;48.208;11.162;2022-11-15T00:47:44;6.03;;;3.92;;
43809;SDS011;29440;48.208;11.162;2022-11-15T00:50:11;6.30;;;3.85;;
43809;SDS011;29440;48.208;11.162;2022-11-15T00:52:37;6.85;;;3.63;;
43809;SDS011;29440;48.208;11.162;2022-11-15T00:55:02;7.38;;;3.97;;
43809;SDS011;29440;48.208;11.162;2022-11-15T00:57:28;5.60;;;3.65;;
43809;SDS011;29440;48.208;11.162;2022-11-15T00:59:54;6.45;;;3.97;;
43809;SDS011;29440;48.208;11.162;2022-11-15T01:02:19;6.05;;;3.88;;
43809;SDS011;29440;48.208;11.162;2022-11-15T01:04:45;5.68;;;3.83;;
43809;SDS011;29440;48.208;11.162;2022-11-15T01:07:11;6.22;;;4.18;;
43809;SDS011;29440;48.208;11.162;2022-11-15T01:09:36;9.23;;;4.70;;
43809;SDS011;29440;48.208;11.162;2022-11-15T01:12:02;9.82;;;5.13;;
43809;SDS011;29440;48.208;11.162;2022-11-15T01:14:28;9.95;;;5.35;;
43809;SDS011;29440;48.208;11.162;2022-11-15T01:16:53;7.35;;;5.25;;
43809;SDS011;29440;48.208;11.162;2022-11-15T01:19:19;7.03;;;4.90;;
43809;SDS011;29440;48.208;11.162;2022-11-15T01:21:45;9.45;;;5.35;;
43809;SDS011;29440;48.208;11.162;2022-11-15T01:24:13;9.80;;;5.25;;
43809;SDS011;29440;48.208;11.162;2022-11-15T01:26:38;11.38;;;5.15;;
43809;SDS011;29440;48.208;11.162;2022-11-15T01:29:04;8.35;;;5.13;;
43809;SDS011;29440;48.208;11.162;2022-11-15T01:31:30;9.40;;;5.43;;
43809;SDS011;29440;48.208;11.162;2022-11-15T01:33:55;8.70;;;4.47;;
43809;SDS011;29440;48.208;11.162;2022-11-15T01:36:21;7.18;;;5.10;;
43809;SDS011;29440;48.208;11.162;2022-11-15T01:38:52;8.85;;;5.35;;
43809;SDS011;29440;48.208;11.162;2022-11-15T01:41:26;10.60;;;5.47;;
43809;SDS011;29440;48.208;11.162;2022-11-15T01:43:55;10.38;;;5.97;;
43809;SDS011;29440;48.208;11.162;2022-11-15T01:48:53;8.10;;;5.40;;
43809;SDS011;29440;48.208;11.162;2022-11-15T01:51:23;10.32;;;5.35;;
43809;SDS011;29440;48.208;11.162;2022-11-15T01:53:52;8.48;;;4.95;;
43809;SDS011;29440;48.208;11.162;2022-11-15T01:56:22;9.70;;;5.55;;
43809;SDS011;29440;48.208;11.162;2022-11-15T01:58:51;10.73;;;5.43;;
43809;SDS011;29440;48.208;11.162;2022-11-15T02:01:18;9.98;;;6.20;;
43809;SDS011;29440;48.208;11.162;2022-11-15T02:03:59;12.43;;;6.32;;
43809;SDS011;29440;48.208;11.162;2022-11-15T02:06:44;9.30;;;5.22;;
43809;SDS011;29440;48.208;11.162;2022-11-15T02:09:11;9.65;;;5.53;;
43809;SDS011;29440;48.208;11.162;2022-11-15T02:11:37;8.02;;;5.03;;
43809;SDS011;29440;48.208;11.162;2022-11-15T02:14:03;11.68;;;5.70;;
43809;SDS011;29440;48.208;11.162;2022-11-15T02:27:24;7.10;;;4.45;;
43809;SDS011;29440;48.208;11.162;2022-11-15T02:35:30;7.38;;;4.32;;
43809;SDS011;29440;48.208;11.162;2022-11-15T02:44:01;9.35;;;5.00;;
43809;SDS011;29440;48.208;11.162;2022-11-15T02:47:04;7.45;;;4.72;;
43809;SDS011;29440;48.208;11.162;2022-11-15T02:50:21;7.05;;;4.57;;
43809;SDS011;29440;48.208;11.162;2022-11-15T02:52:30;9.55;;;5.00;;
43809;SDS011;29440;48.208;11.162;2022-11-15T02:54:56;8.00;;;4.80;;
43809;SDS011;29440;48.208;11.162;2022-11-15T02:57:45;9.50;;;4.68;;
43809;SDS011;29440;48.208;11.162;2022-11-15T03:00:20;8.48;;;5.03;;
43809;SDS011;29440;48.208;11.162;2022-11-15T03:16:28;8.02;;;4.97;;
43809;SDS011;29440;48.208;11.162;2022-11-15T03:19:04;10.48;;;5.82;;
43809;SDS011;29440;48.208;11.162;2022-11-15T03:21:38;7.10;;;4.68;;
43809;SDS011;29440;48.208;11.162;2022-11-15T03:24:06;9.15;;;4.47;;
43809;SDS011;29440;48.208;11.162;2022-11-15T03:26:33;6.90;;;4.20;;
43809;SDS011;29440;48.208;11.162;2022-11-15T03:29:03;9.38;;;5.43;;
43809;SDS011;29440;48.208;11.162;2022-11-15T03:31:38;8.00;;;4.82;;
43809;SDS011;29440;48.208;11.162;2022-11-15T03:36:57;6.82;;;4.82;;
43809;SDS011;29440;48.208;11.162;2022-11-15T03:39:22;7.30;;;4.43;;
43809;SDS011;29440;48.208;11.162;2022-11-15T03:41:53;8.15;;;4.85;;
43809;SDS011;29440;48.208;11.162;2022-11-15T03:47:38;10.32;;;5.07;;
43809;SDS011;29440;48.208;11.162;2022-11-15T03:50:25;7.75;;;4.72;;
43809;SDS011;29440;48.208;11.162;2022-11-15T03:52:51;5.90;;;4.55;;
43809;SDS011;29440;48.208;11.162;2022-11-15T03:55:20;8.45;;;5.25;;
43809;SDS011;29440;48.208;11.162;2022-11-15T03:57:48;8.68;;;4.80;;
43809;SDS011;29440;48.208;11.162;2022-11-15T04:00:17;6.88;;;4.35;;
43809;SDS011;29440;48.208;11.162;2022-11-15T04:02:44;7.03;;;4.22;;
43809;SDS011;29440;48.208;11.162;2022-11-15T04:05:10;10.40;;;4.75;;
43809;SDS011;29440;48.208;11.162;2022-11-15T04:07:35;9.77;;;5.15;;
43809;SDS011;29440;48.208;11.162;2022-11-15T04:10:02;7.78;;;5.10;;
43809;SDS011;29440;48.208;11.162;2022-11-15T04:12:42;10.82;;;5.20;;
43809;SDS011;29440;48.208;11.162;2022-11-15T04:15:15;8.60;;;4.95;;
43809;SDS011;29440;48.208;11.162;2022-11-15T04:17:45;7.55;;;5.18;;
43809;SDS011;29440;48.208;11.162;2022-11-15T04:20:17;10.13;;;5.10;;
43809;SDS011;29440;48.208;11.162;2022-11-15T04:23:04;9.20;;;5.40;;
43809;SDS011;29440;48.208;11.162;2022-11-15T04:25:52;11.27;;;5.90;;
43809;SDS011;29440;48.208;11.162;2022-11-15T04:28:19;13.18;;;7.10;;
43809;SDS011;29440;48.208;11.162;2022-11-15T04:30:45;10.27;;;6.07;;
43809;SDS011;29440;48.208;11.162;2022-11-15T04:33:11;10.25;;;6.00;;
43809;SDS011;29440;48.208;11.162;2022-11-15T04:35:37;12.52;;;6.30;;
43809;SDS011;29440;48.208;11.162;2022-11-15T04:38:03;13.35;;;6.93;;
43809;SDS011;29440;48.208;11.162;2022-11-15T04:40:30;12.07;;;6.97;;
43809;SDS011;29440;48.208;11.162;2022-11-15T04:42:56;17.85;;;7.38;;
43809;SDS011;29440;48.208;11.162;2022-11-15T04:45:22;12.10;;;6.55;;
43809;SDS011;29440;48.208;11.162;2022-11-15T04:47:47;11.35;;;5.80;;
43809;SDS011;29440;48.208;11.162;2022-11-15T04:50:13;10.55;;;6.25;;
43809;SDS011;29440;48.208;11.162;2022-11-15T04:52:41;11.35;;;6.28;;
43809;SDS011;29440;48.208;11.162;2022-11-15T04:55:07;10.38;;;5.93;;
43809;SDS011;29440;48.208;11.162;2022-11-15T04:57:36;11.50;;;6.40;;
43809;SDS011;29440;48.208;11.162;2022-11-15T05:00:03;9.82;;;6.00;;
43809;SDS011;29440;48.208;11.162;2022-11-15T05:02:30;14.88;;;7.20;;
43809;SDS011;29440;48.208;11.162;2022-11-15T05:05:16;12.15;;;7.45;;
43809;SDS011;29440;48.208;11.162;2022-11-15T05:07:41;9.90;;;6.78;;
43809;SDS011;29440;48.208;11.162;2022-11-15T05:10:07;10.48;;;6.70;;
43809;SDS011;29440;48.208;11.162;2022-11-15T05:12:33;11.80;;;6.97;;
43809;SDS011;29440;48.208;11.162;2022-11-15T05:14:59;12.70;;;7.70;;
43809;SDS011;29440;48.208;11.162;2022-11-15T05:17:24;10.52;;;6.43;;
43809;SDS011;29440;48.208;11.162;2022-11-15T05:19:50;11.63;;;6.28;;
43809;SDS011;29440;48.208;11.162;2022-11-15T05:22:16;11.60;;;6.47;;
43809;SDS011;29440;48.208;11.162;2022-11-15T05:24:43;8.68;;;5.10;;
43809;SDS011;29440;48.208;11.162;2022-11-15T05:27:08;10.43;;;5.50;;
43809;SDS011;29440;48.208;11.162;2022-11-15T05:29:34;12.77;;;6.35;;
43809;SDS011;29440;48.208;11.162;2022-11-15T05:31:59;10.95;;;6.63;;
43809;SDS011;29440;48.208;11.162;2022-11-15T05:34:25;16.20;;;6.80;;
43809;SDS011;29440;48.208;11.162;2022-11-15T05:36:51;10.93;;;5.45;;
43809;SDS011;29440;48.208;11.162;2022-11-15T05:39:17;7.70;;;4.80;;
43809;SDS011;29440;48.208;11.162;2022-11-15T05:41:47;9.95;;;5.82;;
43809;SDS011;29440;48.208;11.162;2022-11-15T05:44:19;13.82;;;5.72;;
43809;SDS011;29440;48.208;11.162;2022-11-15T05:46:47;12.18;;;6.00;;
43809;SDS011;29440;48.208;11.162;2022-11-15T05:49:15;8.20;;;5.15;;
43809;SDS011;29440;48.208;11.162;2022-11-15T05:51:42;13.48;;;5.75;;
43809;SDS011;29440;48.208;11.162;2022-11-15T05:54:09;11.35;;;6.45;;
43809;SDS011;29440;48.208;11.162;2022-11-15T05:56:36;11.40;;;5.60;;
43809;SDS011;29440;48.208;11.162;2022-11-15T05:59:02;12.20;;;6.35;;
43809;SDS011;29440;48.208;11.162;2022-11-15T06:01:28;11.65;;;5.90;;
43809;SDS011;29440;48.208;11.162;2022-11-15T06:03:54;11.77;;;6.32;;
43809;SDS011;29440;48.208;11.162;2022-11-15T06:06:20;9.30;;;5.70;;
43809;SDS011;29440;48.208;11.162;2022-11-15T06:08:45;14.35;;;6.53;;
43809;SDS011;29440;48.208;11.162;2022-11-15T06:11:12;13.45;;;5.70;;
43809;SDS011;29440;48.208;11.162;2022-11-15T06:13:39;10.82;;;6.53;;
43809;SDS011;29440;48.208;11.162;2022-11-15T06:16:05;14.30;;;7.82;;
43809;SDS011;29440;48.208;11.162;2022-11-15T06:18:31;16.83;;;9.07;;
43809;SDS011;29440;48.208;11.162;2022-11-15T06:20:59;14.20;;;8.10;;
43809;SDS011;29440;48.208;11.162;2022-11-15T06:23:25;12.63;;;8.18;;
43809;SDS011;29440;48.208;11.162;2022-11-15T06:25:51;10.73;;;6.47;;
43809;SDS011;29440;48.208;11.162;2022-11-15T06:28:16;12.60;;;7.00;;
43809;SDS011;29440;48.208;11.162;2022-11-15T06:30:42;12.40;;;8.18;;
43809;SDS011;29440;48.208;11.162;2022-11-15T06:33:08;12.55;;;6.88;;
43809;SDS011;29440;48.208;11.162;2022-11-15T06:35:34;9.38;;;5.93;;
43809;SDS011;29440;48.208;11.162;2022-11-15T06:38:04;12.00;;;7.18;;
43809;SDS011;29440;48.208;11.162;2022-11-15T06:40:33;11.82;;;6.72;;
43809;SDS011;29440;48.208;11.162;2022-11-15T06:42:59;10.80;;;6.68;;
43809;SDS011;29440;48.208;11.162;2022-11-15T06:45:25;11.90;;;7.30;;
43809;SDS011;29440;48.208;11.162;2022-11-15T06:47:51;12.57;;;6.90;;
43809;SDS011;29440;48.208;11.162;2022-11-15T06:50:17;17.40;;;8.80;;
43809;SDS011;29440;48.208;11.162;2022-11-15T06:52:42;12.80;;;7.43;;
43809;SDS011;29440;48.208;11.162;2022-11-15T06:55:08;13.30;;;7.30;;
43809;SDS011;29440;48.208;11.162;2022-11-15T06:57:34;12.05;;;6.63;;
43809;SDS011;29440;48.208;11.162;2022-11-15T07:00:00;14.23;;;6.82;;
43809;SDS011;29440;48.208;11.162;2022-11-15T07:02:27;13.13;;;6.70;;
43809;SDS011;29440;48.208;11.162;2022-11-15T07:04:52;11.60;;;6.63;;
43809;SDS011;29440;48.208;11.162;2022-11-15T07:07:18;10.65;;;6.07;;
43809;SDS011;29440;48.208;11.162;2022-11-15T07:09:43;20.15;;;6.85;;
43809;SDS011;29440;48.208;11.162;2022-11-15T07:12:09;12.43;;;7.78;;
43809;SDS011;29440;48.208;11.162;2022-11-15T07:14:34;10.32;;;6.68;;
43809;SDS011;29440;48.208;11.162;2022-11-15T07:17:02;15.27;;;7.10;;
43809;SDS011;29440;48.208;11.162;2022-11-15T07:19:28;11.60;;;6.50;;
43809;SDS011;29440;48.208;11.162;2022-11-15T07:21:54;10.48;;;6.22;;
43809;SDS011;29440;48.208;11.162;2022-11-15T07:24:19;10.00;;;5.97;;
43809;SDS011;29440;48.208;11.162;2022-11-15T07:26:45;12.60;;;6.57;;
43809;SDS011;29440;48.208;11.162;2022-11-15T07:29:10;11.90;;;6.88;;
43809;SDS011;29440;48.208;11.162;2022-11-15T07:31:36;18.30;;;9.40;;
43809;SDS011;29440;48.208;11.162;2022-11-15T07:34:02;16.10;;;8.70;;
43809;SDS011;29440;48.208;11.162;2022-11-15T07:36:27;13.52;;;7.38;;
43809;SDS011;29440;48.208;11.162;2022-11-15T07:38:53;12.18;;;7.78;;
43809;SDS011;29440;48.208;11.162;2022-11-15T07:41:18;11.07;;;6.55;;
43809;SDS011;29440;48.208;11.162;2022-11-15T07:43:44;9.35;;;6.25;;
43809;SDS011;29440;48.208;11.162;2022-11-15T07:46:09;8.00;;;6.00;;
43809;SDS011;29440;48.208;11.162;2022-11-15T07:48:35;13.73;;;7.70;;
43809;SDS011;29440;48.208;11.162;2022-11-15T07:51:02;11.40;;;7.78;;
43809;SDS011;29440;48.208;11.162;2022-11-15T07:53:28;11.77;;;7.82;;
43809;SDS011;29440;48.208;11.162;2022-11-15T07:55:53;12.45;;;7.80;;
43809;SDS011;29440;48.208;11.162;2022-11-15T07:58:19;12.95;;;7.78;;
43809;SDS011;29440;48.208;11.162;2022-11-15T08:00:44;13.68;;;7.55;;
43809;SDS011;29440;48.208;11.162;2022-11-15T08:03:11;17.13;;;6.72;;
43809;SDS011;29440;48.208;11.162;2022-11-15T08:05:38;12.15;;;7.32;;
43809;SDS011;29440;48.208;11.162;2022-11-15T08:08:05;12.60;;;8.13;;
43809;SDS011;29440;48.208;11.162;2022-11-15T08:10:31;9.95;;;6.63;;
43809;SDS011;29440;48.208;11.162;2022-11-15T08:13:04;11.43;;;6.80;;
43809;SDS011;29440;48.208;11.162;2022-11-15T08:15:32;10.98;;;6.60;;
43809;SDS011;29440;48.208;11.162;2022-11-15T08:18:01;9.32;;;5.53;;
43809;SDS011;29440;48.208;11.162;2022-11-15T08:20:29;10.77;;;5.30;;
43809;SDS011;29440;48.208;11.162;2022-11-15T08:22:59;14.05;;;5.22;;
43809;SDS011;29440;48.208;11.162;2022-11-15T08:25:28;13.15;;;5.55;;
43809;SDS011;29440;48.208;11.162;2022-11-15T08:27:55;9.43;;;4.85;;
43809;SDS011;29440;48.208;11.162;2022-11-15T08:30:22;8.75;;;3.30;;
43809;SDS011;29440;48.208;11.162;2022-11-15T08:32:49;8.02;;;3.63;;
43809;SDS011;29440;48.208;11.162;2022-11-15T08:35:15;10.48;;;4.38;;
43809;SDS011;29440;48.208;11.162;2022-11-15T08:37:41;9.52;;;3.92;;
43809;SDS011;29440;48.208;11.162;2022-11-15T08:40:07;6.70;;;3.17;;
43809;SDS011;29440;48.208;11.162;2022-11-15T08:42:34;11.63;;;2.70;;
43809;SDS011;29440;48.208;11.162;2022-11-15T08:45:00;4.72;;;2.55;;
43809;SDS011;29440;48.208;11.162;2022-11-15T08:47:25;4.28;;;2.42;;
43809;SDS011;29440;48.208;11.162;2022-11-15T08:49:51;6.13;;;2.20;;
43809;SDS011;29440;48.208;11.162;2022-11-15T08:52:17;4.22;;;2.45;;
43809;SDS011;29440;48.208;11.162;2022-11-15T08:54:42;3.95;;;2.75;;
43809;SDS011;29440;48.208;11.162;2022-11-15T08:57:08;3.38;;;2.17;;
43809;SDS011;29440;48.208;11.162;2022-11-15T08:59:34;3.60;;;1.70;;
43809;SDS011;29440;48.208;11.162;2022-11-15T09:02:00;3.60;;;1.73;;
43809;SDS011;29440;48.208;11.162;2022-11-15T09:04:26;2.30;;;1.75;;
43809;SDS011;29440;48.208;11.162;2022-11-15T09:06:51;2.65;;;1.98;;
43809;SDS011;29440;48.208;11.162;2022-11-15T09:09:17;3.42;;;1.77;;
43809;SDS011;29440;48.208;11.162;2022-11-15T09:11:43;2.83;;;1.80;;
43809;SDS011;29440;48.208;11.162;2022-11-15T09:14:10;4.22;;;2.10;;
43809;SDS011;29440;48.208;11.162;2022-11-15T09:16:37;4.25;;;1.80;;
43809;SDS011;29440;48.208;11.162;2022-11-15T09:19:03;5.40;;;2.20;;
43809;SDS011;29440;48.208;11.162;2022-11-15T09:21:28;2.88;;;1.30;;
43809;SDS011;29440;48.208;11.162;2022-11-15T09:23:54;2.17;;;1.50;;
43809;SDS011;29440;48.208;11.162;2022-11-15T09:26:20;4.28;;;1.83;;
43809;SDS011;29440;48.208;11.162;2022-11-15T09:28:46;2.90;;;1.52;;
43809;SDS011;29440;48.208;11.162;2022-11-15T09:31:11;3.40;;;1.73;;
43809;SDS011;29440;48.208;11.162;2022-11-15T09:33:37;3.10;;;2.20;;
43809;SDS011;29440;48.208;11.162;2022-11-15T09:36:04;6.10;;;2.20;;
43809;SDS011;29440;48.208;11.162;2022-11-15T09:38:31;2.80;;;2.10;;
43809;SDS011;29440;48.208;11.162;2022-11-15T09:41:18;2.65;;;1.90;;
43809;SDS011;29440;48.208;11.162;2022-11-15T09:44:03;4.72;;;2.20;;
43809;SDS011;29440;48.208;11.162;2022-11-15T09:49:58;5.20;;;1.95;;
43809;SDS011;29440;48.208;11.162;2022-11-15T09:54:59;5.38;;;2.00;;
43809;SDS011;29440;48.208;11.162;2022-11-15T09:57:38;4.97;;;2.13;;
43809;SDS011;29440;48.208;11.162;2022-11-15T10:00:25;4.75;;;2.38;;
43809;SDS011;29440;48.208;11.162;2022-11-15T10:03:16;3.22;;;2.15;;
43809;SDS011;29440;48.208;11.162;2022-11-15T10:05:49;3.85;;;2.38;;
43809;SDS011;29440;48.208;11.162;2022-11-15T10:11:11;5.80;;;2.38;;
43809;SDS011;29440;48.208;11.162;2022-11-15T10:13:51;4.90;;;2.15;;
43809;SDS011;29440;48.208;11.162;2022-11-15T10:19:33;2.78;;;1.73;;
43809;SDS011;29440;48.208;11.162;2022-11-15T10:25:26;2.88;;;1.45;;
43809;SDS011;29440;48.208;11.162;2022-11-15T10:30:38;5.35;;;1.45;;
43809;SDS011;29440;48.208;11.162;2022-11-15T10:36:13;5.00;;;1.75;;
43809;SDS011;29440;48.208;11.162;2022-11-15T10:41:18;3.95;;;1.60;;
43809;SDS011;29440;48.208;11.162;2022-11-15T10:46:45;3.22;;;1.60;;
43809;SDS011;29440;48.208;11.162;2022-11-15T10:51:47;3.25;;;1.55;;
43809;SDS011;29440;48.208;11.162;2022-11-15T10:54:37;2.97;;;1.70;;
43809;SDS011;29440;48.208;11.162;2022-11-15T10:57:20;4.93;;;1.85;;
43809;SDS011;29440;48.208;11.162;2022-11-15T10:59:49;2.50;;;1.75;;
43809;SDS011;29440;48.208;11.162;2022-11-15T11:02:30;5.68;;;2.88;;
43809;SDS011;29440;48.208;11.162;2022-11-15T11:05:25;2.85;;;1.98;;
43809;SDS011;29440;48.208;11.162;2022-11-15T11:07:58;3.78;;;2.25;;
43809;SDS011;29440;48.208;11.162;2022-11-15T11:10:29;3.65;;;2.70;;
43809;SDS011;29440;48.208;11.162;2022-11-15T11:13:04;4.10;;;2.38;;
43809;SDS011;29440;48.208;11.162;2022-11-15T11:15:46;2.40;;;1.80;;
43809;SDS011;29440;48.208;11.162;2022-11-15T11:18:38;4.68;;;2.55;;
43809;SDS011;29440;48.208;11.162;2022-11-15T11:21:10;3.85;;;2.28;;
43809;SDS011;29440;48.208;11.162;2022-11-15T11:23:53;3.60;;;1.88;;
43809;SDS011;29440;48.208;11.162;2022-11-15T11:26:44;3.70;;;1.98;;
43809;SDS011;29440;48.208;11.162;2022-11-15T11:29:32;3.90;;;2.40;;
43809;SDS011;29440;48.208;11.162;2022-11-15T11:34:58;4.15;;;2.88;;
43809;SDS011;29440;48.208;11.162;2022-11-15T11:40:16;4.72;;;2.60;;
43809;SDS011;29440;48.208;11.162;2022-11-15T11:48:46;6.75;;;3.88;;
43809;SDS011;29440;48.208;11.162;2022-11-15T11:51:20;8.88;;;3.08;;
43809;SDS011;29440;48.208;11.162;2022-11-15T11:53:52;7.05;;;3.92;;
43809;SDS011;29440;48.208;11.162;2022-11-15T11:58:51;4.57;;;3.17;;
43809;SDS011;29440;48.208;11.162;2022-11-15T12:01:39;5.35;;;3.30;;
43809;SDS011;29440;48.208;11.162;2022-11-15T12:09:40;6.82;;;3.33;;
43809;SDS011;29440;48.208;11.162;2022-11-15T12:15:22;8.65;;;3.45;;
43809;SDS011;29440;48.208;11.162;2022-11-15T12:17:50;6.25;;;4.03;;
43809;SDS011;29440;48.208;11.162;2022-11-15T12:20:18;7.90;;;4.25;;
43809;SDS011;29440;48.208;11.162;2022-11-15T12:25:48;8.52;;;4.50;;
43809;SDS011;29440;48.208;11.162;2022-11-15T12:31:55;8.70;;;5.43;;
43809;SDS011;29440;48.208;11.162;2022-11-15T12:34:37;8.65;;;5.55;;
43809;SDS011;29440;48.208;11.162;2022-11-15T12:42:35;8.05;;;4.75;;
43809;SDS011;29440;48.208;11.162;2022-11-15T12:53:40;7.22;;;4.35;;
43809;SDS011;29440;48.208;11.162;2022-11-15T12:56:15;7.38;;;3.55;;
43809;SDS011;29440;48.208;11.162;2022-11-15T13:01:58;6.07;;;3.25;;
43809;SDS011;29440;48.208;11.162;2022-11-15T13:06:53;6.78;;;3.40;;
43809;SDS011;29440;48.208;11.162;2022-11-15T13:19:45;6.45;;;3.63;;
43809;SDS011;29440;48.208;11.162;2022-11-15T13:22:12;6.93;;;2.92;;
43809;SDS011;29440;48.208;11.162;2022-11-15T13:24:57;6.50;;;3.10;;
43809;SDS011;29440;48.208;11.162;2022-11-15T13:27:24;5.85;;;3.40;;
43809;SDS011;29440;48.208;11.162;2022-11-15T13:29:49;5.30;;;3.30;;
43809;SDS011;29440;48.208;11.162;2022-11-15T13:32:15;6.72;;;3.55;;
43809;SDS011;29440;48.208;11.162;2022-11-15T13:34:48;5.70;;;3.45;;
43809;SDS011;29440;48.208;11.162;2022-11-15T13:39:46;5.75;;;3.17;;
43809;SDS011;29440;48.208;11.162;2022-11-15T13:42:17;5.43;;;3.30;;
43809;SDS011;29440;48.208;11.162;2022-11-15T13:45:12;5.80;;;2.88;;
43809;SDS011;29440;48.208;11.162;2022-11-15T13:47:30;6.05;;;3.50;;
43809;SDS011;29440;48.208;11.162;2022-11-15T13:49:57;7.68;;;4.43;;
43809;SDS011;29440;48.208;11.162;2022-11-15T13:52:23;10.60;;;4.32;;
43809;SDS011;29440;48.208;11.162;2022-11-15T13:55:10;7.00;;;4.00;;
43809;SDS011;29440;48.208;11.162;2022-11-15T14:00:05;13.18;;;5.55;;
43809;SDS011;29440;48.208;11.162;2022-11-15T14:02:52;5.53;;;3.55;;
43809;SDS011;29440;48.208;11.162;2022-11-15T14:05:20;5.38;;;3.75;;
43809;SDS011;29440;48.208;11.162;2022-11-15T14:07:58;9.25;;;3.85;;
43809;SDS011;29440;48.208;11.162;2022-11-15T14:10:36;8.13;;;4.43;;
43809;SDS011;29440;48.208;11.162;2022-11-15T14:13:02;6.10;;;4.10;;
43809;SDS011;29440;48.208;11.162;2022-11-15T14:15:33;9.38;;;4.07;;
43809;SDS011;29440;48.208;11.162;2022-11-15T14:18:01;7.50;;;3.67;;
43809;SDS011;29440;48.208;11.162;2022-11-15T14:20:29;7.32;;;4.38;;
43809;SDS011;29440;48.208;11.162;2022-11-15T14:22:59;9.25;;;4.20;;
43809;SDS011;29440;48.208;11.162;2022-11-15T14:25:30;6.55;;;4.10;;
43809;SDS011;29440;48.208;11.162;2022-11-15T14:30:42;6.63;;;4.03;;
43809;SDS011;29440;48.208;11.162;2022-11-15T14:35:43;6.00;;;3.70;;
43809;SDS011;29440;48.208;11.162;2022-11-15T14:38:08;8.25;;;3.58;;
43809;SDS011;29440;48.208;11.162;2022-11-15T14:40:34;7.60;;;3.45;;
43809;SDS011;29440;48.208;11.162;2022-11-15T14:43:00;8.73;;;3.72;;
43809;SDS011;29440;48.208;11.162;2022-11-15T14:45:26;5.65;;;3.42;;
43809;SDS011;29440;48.208;11.162;2022-11-15T14:47:52;5.38;;;2.78;;
43809;SDS011;29440;48.208;11.162;2022-11-15T14:50:19;6.63;;;3.33;;
43809;SDS011;29440;48.208;11.162;2022-11-15T14:52:46;6.78;;;3.70;;
43809;SDS011;29440;48.208;11.162;2022-11-15T14:57:44;9.05;;;5.03;;
43809;SDS011;29440;48.208;11.162;2022-11-15T15:00:10;9.13;;;4.35;;
43809;SDS011;29440;48.208;11.162;2022-11-15T15:02:36;8.55;;;4.75;;
43809;SDS011;29440;48.208;11.162;2022-11-15T15:05:10;6.00;;;3.60;;
43809;SDS011;29440;48.208;11.162;2022-11-15T15:07:38;5.65;;;3.50;;
43809;SDS011;29440;48.208;11.162;2022-11-15T15:10:03;7.32;;;3.10;;
43809;SDS011;29440;48.208;11.162;2022-11-15T15:12:29;8.43;;;3.63;;
43809;SDS011;29440;48.208;11.162;2022-11-15T15:14:55;10.65;;;4.40;;
43809;SDS011;29440;48.208;11.162;2022-11-15T15:17:21;6.75;;;3.28;;
43809;SDS011;29440;48.208;11.162;2022-11-15T15:19:46;5.60;;;3.17;;
43809;SDS011;29440;48.208;11.162;2022-11-15T15:22:16;6.95;;;3.60;;
43809;SDS011;29440;48.208;11.162;2022-11-15T15:24:44;11.32;;;3.72;;
43809;SDS011;29440;48.208;11.162;2022-11-15T15:27:10;6.25;;;4.03;;
43809;SDS011;29440;48.208;11.162;2022-11-15T15:29:37;4.88;;;3.20;;
43809;SDS011;29440;48.208;11.162;2022-11-15T15:32:03;5.45;;;3.03;;
43809;SDS011;29440;48.208;11.162;2022-11-15T15:34:29;11.52;;;5.70;;
43809;SDS011;29440;48.208;11.162;2022-11-15T15:37:08;15.02;;;6.15;;
43809;SDS011;29440;48.208;11.162;2022-11-15T15:39:50;19.83;;;6.63;;
43809;SDS011;29440;48.208;11.162;2022-11-15T15:42:16;25.67;;;7.68;;
43809;SDS011;29440;48.208;11.162;2022-11-15T15:44:42;16.45;;;6.70;;
43809;SDS011;29440;48.208;11.162;2022-11-15T15:47:11;13.85;;;5.97;;
43809;SDS011;29440;48.208;11.162;2022-11-15T15:49:48;20.65;;;6.88;;
43809;SDS011;29440;48.208;11.162;2022-11-15T15:52:14;12.27;;;5.53;;
43809;SDS011;29440;48.208;11.162;2022-11-15T15:54:40;35.08;;;16.58;;
43809;SDS011;29440;48.208;11.162;2022-11-15T15:57:06;24.70;;;11.57;;
43809;SDS011;29440;48.208;11.162;2022-11-15T15:59:33;13.82;;;8.73;;
43809;SDS011;29440;48.208;11.162;2022-11-15T16:01:59;10.20;;;3.75;;
43809;SDS011;29440;48.208;11.162;2022-11-15T16:04:25;7.13;;;3.53;;
43809;SDS011;29440;48.208;11.162;2022-11-15T16:06:51;8.23;;;2.60;;
43809;SDS011;29440;48.208;11.162;2022-11-15T16:09:19;5.95;;;3.53;;
43809;SDS011;29440;48.208;11.162;2022-11-15T16:12:05;6.15;;;3.50;;
43809;SDS011;29440;48.208;11.162;2022-11-15T16:14:31;7.53;;;3.95;;
43809;SDS011;29440;48.208;11.162;2022-11-15T16:16:57;9.27;;;6.00;;
43809;SDS011;29440;48.208;11.162;2022-11-15T16:19:22;5.75;;;3.30;;
43809;SDS011;29440;48.208;11.162;2022-11-15T16:21:48;13.63;;;3.28;;
43809;SDS011;29440;48.208;11.162;2022-11-15T16:24:14;5.47;;;2.88;;
43809;SDS011;29440;48.208;11.162;2022-11-15T16:26:40;8.25;;;3.22;;
43809;SDS011;29440;48.208;11.162;2022-11-15T16:29:05;7.05;;;3.97;;
43809;SDS011;29440;48.208;11.162;2022-11-15T16:31:34;9.55;;;4.20;;
43809;SDS011;29440;48.208;11.162;2022-11-15T16:33:59;7.93;;;4.57;;
43809;SDS011;29440;48.208;11.162;2022-11-15T16:36:25;14.18;;;5.85;;
43809;SDS011;29440;48.208;11.162;2022-11-15T16:38:52;12.90;;;6.18;;
43809;SDS011;29440;48.208;11.162;2022-11-15T16:41:18;12.48;;;5.68;;
43809;SDS011;29440;48.208;11.162;2022-11-15T16:43:47;10.13;;;6.30;;
43809;SDS011;29440;48.208;11.162;2022-11-15T16:46:14;11.00;;;6.45;;
43809;SDS011;29440;48.208;11.162;2022-11-15T16:48:45;11.65;;;6.53;;
43809;SDS011;29440;48.208;11.162;2022-11-15T16:51:11;15.93;;;6.85;;
43809;SDS011;29440;48.208;11.162;2022-11-15T16:53:37;11.45;;;6.75;;
43809;SDS011;29440;48.208;11.162;2022-11-15T16:56:03;11.57;;;6.65;;
43809;SDS011;29440;48.208;11.162;2022-11-15T16:58:38;18.85;;;7.88;;
43809;SDS011;29440;48.208;11.162;2022-11-15T17:01:04;24.83;;;9.90;;
43809;SDS011;29440;48.208;11.162;2022-11-15T17:03:30;20.00;;;8.90;;
43809;SDS011;29440;48.208;11.162;2022-11-15T17:05:57;16.77;;;8.80;;